.
WxDataArchive / Data Records for 2016-06-20
2016-06-19 June 2016 2016-06-21

Data Records for Monday, 20 June 2016

Time	Temp	Chill	HIndex	Humid	Dewpt	 Wind 	HiWind	WindDir	Rain 	Barom
-----	----	-----	------	-----	-----	------	------	-------	-----	-----
00:00	77.0	77.0	78.8	64	63.9	0	1	248	0.00	30.079 
00:05	77.0	77.0	78.8	64	63.9	0	1	248	0.00	30.079 
00:10	77.0	77.0	78.8	64	63.9	0	1	248	0.00	30.079 
00:15	77.2	77.2	79.0	64	64.1	0	2	248	0.00	30.079 
00:20	77.4	77.4	79.2	64	64.2	0	2	248	0.00	30.079 
00:25	77.6	77.6	79.4	64	64.4	0	1	248	0.00	30.079 
00:30	77.7	77.7	79.5	64	64.5	0	1	248	0.00	30.079 
00:35	77.9	77.9	79.7	65	65.2	0	3	248	0.00	30.079 
00:40	78.1	78.1	80.0	65	65.4	0	3	248	0.00	30.079 
00:45	78.3	78.3	80.2	66	66.0	1	3	248	0.00	30.079 
00:50	78.3	78.3	80.2	66	66.0	0	1	248	0.00	30.079 
00:55	78.5	78.5	80.5	67	66.6	0	1	248	0.00	30.079 
01:00	78.6	78.6	80.7	67	66.7	0	2	248	0.00	30.086 
01:05	78.6	78.6	80.7	68	67.1	0	3	248	0.00	30.086 
01:10	78.8	78.8	81.0	68	67.3	1	4	248	0.00	30.086 
01:15	78.8	78.8	81.1	69	67.7	1	3	248	0.00	30.090 
01:20	78.8	78.8	81.1	69	67.7	0	3	248	0.00	30.090 
01:25	78.8	78.8	81.1	69	67.7	1	4	248	0.00	30.090 
01:30	78.8	78.8	81.1	69	67.7	0	2	248	0.00	30.089 
01:35	78.6	78.6	80.8	70	68.0	1	2	248	0.00	30.089 
01:40	78.6	78.6	80.8	70	68.0	0	3	248	0.00	30.089 
01:45	78.5	78.5	80.7	70	67.9	0	2	248	0.00	30.091 
01:50	78.5	78.5	80.8	71	68.3	0	2	248	0.00	30.091 
01:55	78.3	78.3	80.5	71	68.1	1	2	248	0.00	30.091 
02:00	78.3	78.3	80.5	71	68.1	1	2	248	0.00	30.091 
02:05	78.3	78.3	80.5	71	68.1	1	3	248	0.00	30.091 
02:10	78.3	78.3	80.5	71	68.1	0	4	248	0.00	30.091 
02:15	78.1	78.1	80.2	72	68.3	0	2	248	0.00	30.088 
02:20	78.1	78.1	80.2	72	68.3	0	3	248	0.00	30.088 
02:25	77.9	77.9	79.9	72	68.1	0	1	248	0.00	30.088 
02:30	77.9	77.9	79.9	72	68.1	0	3	248	0.00	30.092 
02:35	77.9	77.9	80.0	73	68.5	0	3	248	0.00	30.092 
02:40	77.9	77.9	80.0	73	68.5	0	3	248	0.00	30.092 
02:45	77.9	77.9	80.0	73	68.5	0	1	248	0.00	30.092 
02:50	77.9	77.9	79.9	72	68.1	1	4	248	0.00	30.092 
02:55	77.9	77.9	80.0	73	68.5	0	2	248	0.00	30.092 
03:00	77.7	77.7	79.7	73	68.3	0	3	248	0.00	30.092 
03:05	77.7	77.7	79.7	73	68.3	0	3	248	0.00	30.092 
03:10	77.6	77.6	79.5	73	68.2	0	2	248	0.00	30.092 
03:15	77.4	77.4	79.3	73	68.0	0	2	248	0.00	30.091 
03:20	77.4	77.4	79.3	74	68.4	0	2	248	0.00	30.091 
03:25	77.2	77.2	79.0	74	68.3	1	5	248	0.00	30.091 
03:30	77.2	77.2	79.0	74	68.3	0	2	248	0.00	30.092 
03:35	77.0	77.0	78.7	75	68.5	1	3	248	0.00	30.092 
03:40	76.8	76.8	78.4	75	68.3	0	3	248	0.00	30.092 
03:45	76.8	76.8	78.4	75	68.3	1	3	248	0.00	30.085 
03:50	76.7	76.7	78.3	75	68.2	1	3	248	0.00	30.085 
03:55	76.7	76.7	78.2	76	68.5	1	4	248	0.00	30.085 
04:00	76.5	76.5	78.0	76	68.4	1	3	248	0.00	30.081 
04:05	76.5	76.5	78.0	76	68.4	1	3	248	0.00	30.081 
04:10	76.3	76.3	77.7	76	68.2	0	2	248	0.00	30.081 
04:15	76.3	76.3	77.7	76	68.2	1	3	248	0.00	30.079 
04:20	76.1	76.1	77.4	77	68.3	1	4	248	0.00	30.079 
04:25	76.1	76.1	77.4	77	68.3	1	3	248	0.00	30.079 
04:30	76.0	76.0	77.2	77	68.3	1	3	248	0.00	30.089 
04:35	76.0	76.0	77.2	77	68.3	1	5	248	0.00	30.089 
04:40	76.0	76.0	77.2	77	68.3	1	3	248	0.00	30.089 
04:45	75.8	75.8	77.0	77	68.1	1	5	248	0.00	30.090 
04:50	76.0	76.0	77.2	77	68.3	2	4	248	0.00	30.090 
04:55	76.0	76.0	77.2	77	68.3	1	3	248	0.00	30.090 
05:00	76.0	76.0	77.2	77	68.3	1	4	248	0.00	30.092 
05:05	75.8	75.8	77.0	77	68.1	1	3	248	0.00	30.092 
05:10	75.8	75.8	77.0	77	68.1	1	3	248	0.00	30.092 
05:15	75.6	75.6	76.6	78	68.2	1	3	248	0.00	30.093 
05:20	75.6	75.6	76.6	78	68.2	1	2	248	0.00	30.093 
05:25	75.6	75.6	76.6	78	68.2	1	4	248	0.00	30.093 
05:30	75.4	75.4	76.3	78	68.0	1	4	248	0.00	30.095 
05:35	75.6	75.6	76.6	78	68.2	1	4	248	0.00	30.095 
05:40	75.4	75.4	76.3	78	68.0	1	2	248	0.00	30.095 
05:45	75.4	75.4	76.3	78	68.0	1	3	248	0.00	30.098 
05:50	75.4	75.4	76.3	78	68.0	1	4	248	0.00	30.098 
05:55	75.4	75.4	76.3	78	68.0	1	3	248	0.00	30.098 
06:00	75.4	75.4	76.3	78	68.0	1	3	270	0.00	30.098 
06:05	75.4	75.4	76.3	78	68.0	1	4	270	0.00	30.098 
06:10	75.4	75.4	76.3	78	68.0	1	3	270	0.00	30.098 
06:15	75.3	75.3	76.2	78	68.0	1	4	270	0.00	30.094 
06:20	75.3	75.3	76.2	78	68.0	1	3	270	0.00	30.094 
06:25	75.3	75.3	76.1	79	68.3	1	4	270	0.00	30.094 
06:30	75.1	75.1	75.8	79	68.1	1	3	270	0.00	30.095 
06:35	75.1	75.1	75.8	79	68.1	0	2	270	0.00	30.095 
06:40	75.1	75.1	75.8	79	68.1	1	3	270	0.00	30.095 
06:45	75.1	75.1	75.8	79	68.1	1	4	270	0.00	30.094 
06:50	75.1	75.1	75.8	79	68.1	1	4	270	0.00	30.094 
06:55	75.1	75.1	75.8	79	68.1	1	4	270	0.00	30.094 
07:00	75.3	75.3	76.1	79	68.3	2	3	248	0.00	30.097 
07:05	75.3	75.3	76.1	79	68.3	1	4	292	0.00	30.097 
07:10	75.4	75.4	76.3	78	68.0	1	4	270	0.00	30.097 
07:15	75.4	75.4	76.3	78	68.0	1	4	270	0.00	30.096 
07:20	75.6	75.6	76.6	78	68.2	2	4	270	0.00	30.096 
07:25	75.8	75.8	76.9	78	68.4	1	4	270	0.00	30.096 
07:30	75.8	75.8	77.0	77	68.1	2	4	270	0.00	30.093 
07:35	76.0	76.0	77.2	77	68.3	1	3	270	0.00	30.093 
07:40	76.1	76.1	77.4	77	68.3	2	5	248	0.00	30.093 
07:45	76.3	76.3	77.6	77	68.5	2	4	248	0.00	30.088 
07:50	76.7	76.7	78.2	76	68.5	1	3	248	0.00	30.088 
07:55	76.8	76.8	78.4	76	68.6	2	5	248	0.00	30.088 
08:00	77.0	77.0	78.7	75	68.5	1	4	225	0.00	30.087 
08:05	77.4	77.4	79.3	75	68.8	1	4	225	0.00	30.087 
08:10	77.6	77.6	79.6	74	68.6	2	4	225	0.00	30.087 
08:15	77.9	77.9	80.0	74	68.9	2	5	248	0.00	30.082 
08:20	78.1	78.1	80.3	73	68.7	2	6	248	0.00	30.082 
08:25	78.5	78.5	80.9	73	69.1	2	4	270	0.00	30.082 
08:30	78.8	78.8	81.3	72	69.0	2	4	248	0.00	30.079 
08:35	79.0	79.0	81.5	71	68.8	2	7	270	0.00	30.079 
08:40	79.2	79.2	81.7	70	68.5	2	4	248	0.00	30.079 
08:45	79.6	79.6	82.3	70	68.9	2	6	248	0.00	30.077 
08:50	79.8	79.8	82.5	69	68.7	2	5	248	0.00	30.077 
08:55	79.8	79.8	82.5	69	68.7	2	6	248	0.00	30.077 
09:00	79.9	79.9	82.7	69	68.8	2	6	248	0.00	30.078 
09:05	79.9	79.9	82.7	69	68.8	2	6	270	0.00	30.078 
09:10	80.3	80.3	83.2	68	68.8	2	6	270	0.00	30.078 
09:15	80.3	80.3	83.0	67	68.3	3	6	248	0.00	30.077 
09:20	80.7	80.7	83.7	67	68.7	2	6	248	0.00	30.077 
09:25	80.9	80.9	83.8	66	68.4	3	5	270	0.00	30.077 
09:30	81.1	81.1	84.1	66	68.6	3	6	270	0.00	30.076 
09:35	81.2	81.2	84.1	65	68.3	3	7	248	0.00	30.076 
09:40	81.2	81.2	84.1	65	68.3	3	10	248	0.00	30.076 
09:45	81.6	81.6	84.7	65	68.7	2	5	248	0.00	30.068 
09:50	81.6	81.6	84.7	65	68.7	3	6	270	0.00	30.068 
09:55	81.2	81.2	84.1	65	68.3	3	9	248	0.00	30.068 
10:00	81.4	81.4	84.4	65	68.5	3	6	248	0.00	30.064 
10:05	81.8	81.8	85.1	65	68.9	2	5	248	0.00	30.064 
10:10	82.4	82.4	85.6	63	68.5	2	6	248	0.00	30.064 
10:15	82.6	82.6	85.7	62	68.2	3	7	248	0.00	30.063 
10:20	82.8	82.8	86.3	63	68.9	3	6	270	0.00	30.063 
10:25	83.2	83.2	86.5	61	68.3	3	7	248	0.00	30.063 
10:30	83.4	83.4	87.0	62	69.0	3	7	292	0.00	30.059 
10:35	83.6	83.6	87.1	61	68.7	3	5	270	0.00	30.059 
10:40	84.0	84.0	87.5	60	68.6	3	6	270	0.00	30.059 
10:45	84.1	84.1	87.7	60	68.7	4	9	270	0.00	30.055 
10:50	84.1	84.1	87.4	59	68.2	3	9	248	0.00	30.055 
10:55	84.1	84.1	87.4	59	68.2	4	8	270	0.00	30.055 
11:00	84.1	84.1	87.7	60	68.7	4	10	248	0.00	30.050 
11:05	84.3	84.3	88.0	60	68.9	4	8	270	0.00	30.050 
11:10	84.3	84.3	87.8	59	68.4	4	7	270	0.00	30.050 
11:15	84.9	84.9	89.1	60	69.4	2	5	248	0.00	30.046 
11:20	85.1	85.1	88.8	58	68.6	3	6	248	0.00	30.046 
11:25	85.3	85.3	89.5	59	69.3	3	6	225	0.00	30.046 
11:30	85.3	85.3	89.2	58	68.8	3	8	248	0.00	30.043 
11:35	85.5	85.5	89.5	58	69.0	4	7	248	0.00	30.043 
11:40	85.7	85.7	89.9	58	69.2	4	7	248	0.00	30.043 
11:45	85.7	85.7	89.9	58	69.2	3	9	270	0.00	30.034 
11:50	86.1	86.1	90.2	57	69.1	3	6	248	0.00	30.034 
11:55	86.1	86.1	90.2	57	69.1	3	6	248	0.00	30.034 
12:00	86.1	86.1	90.2	57	69.1	3	6	270	0.00	30.030 
12:05	86.3	86.3	90.6	57	69.2	3	7	248	0.00	30.030 
12:10	86.3	86.3	90.2	56	68.7	4	9	248	0.00	30.030 
12:15	86.5	86.5	91.0	57	69.4	4	7	248	0.00	30.015 
12:20	87.0	87.0	91.5	56	69.4	3	7	248	0.00	30.015 
12:25	87.0	87.0	91.5	56	69.4	3	6	270	0.00	30.015 
12:30	87.0	87.0	91.1	55	68.8	4	8	270	0.00	30.013 
12:35	86.7	86.7	90.3	54	68.0	3	7	270	0.00	30.013 
12:40	86.5	86.5	90.3	55	68.4	3	7	248	0.00	30.013 
12:45	86.7	86.7	91.3	57	69.6	2	6	270	0.00	30.011 
12:50	87.4	87.4	92.6	57	70.3	2	4	270	0.00	30.011 
12:55	87.2	87.2	91.1	54	68.5	3	6	270	0.00	30.011 
13:00	87.0	87.0	91.1	55	68.8	3	7	248	0.00	30.008 
13:05	87.6	87.6	92.2	55	69.4	2	9	248	0.00	30.008 
13:10	88.0	88.0	92.2	53	68.7	3	7	248	0.00	30.008 
13:15	88.0	88.0	92.2	53	68.7	4	10	248	0.00	30.010 
13:20	88.0	88.0	91.8	52	68.1	4	9	248	0.00	30.010 
13:25	88.2	88.2	92.1	52	68.3	4	8	248	0.00	30.010 
13:30	88.2	88.2	91.8	51	67.7	4	13	248	0.00	30.013 
13:35	87.8	87.8	91.4	52	67.9	4	8	248	0.00	30.013 
13:40	88.0	88.0	92.2	53	68.7	3	9	248	0.00	30.013 
13:45	88.2	88.2	92.1	52	68.3	4	10	248	0.00	30.009 
13:50	88.2	88.2	92.1	52	68.3	2	7	248	0.00	30.009 
13:55	88.4	88.4	92.1	51	67.9	4	6	248	0.00	30.009 
14:00	88.8	88.8	92.4	50	67.7	3	8	248	0.00	29.998 
14:05	88.8	88.8	92.4	50	67.7	3	7	248	0.00	29.998 
14:10	88.6	88.6	92.1	50	67.5	3	7	248	0.00	29.998 
14:15	88.2	88.2	91.4	50	67.2	3	6	248	0.00	29.996 
14:20	88.4	88.4	92.5	52	68.5	2	5	270	0.00	29.996 
14:25	89.5	89.5	93.2	49	67.8	3	6	248	0.00	29.996 
14:30	89.7	89.7	93.2	48	67.4	3	9	248	0.00	29.986 
14:35	89.5	89.5	92.8	48	67.2	3	6	270	0.00	29.986 
14:40	89.3	89.3	92.1	47	66.4	3	7	248	0.00	29.986 
14:45	89.7	89.7	92.8	47	66.7	3	6	248	0.00	29.980 
14:50	89.9	89.9	93.5	48	67.5	3	7	248	0.00	29.980 
14:55	89.9	89.9	92.7	46	66.3	3	7	248	0.00	29.980 
15:00	89.5	89.5	92.1	46	65.9	3	7	248	0.00	29.970 
15:05	89.3	89.3	92.1	47	66.4	2	5	248	0.00	29.970 
15:10	88.8	88.8	91.6	48	66.5	3	7	248	0.00	29.970 
15:15	88.4	88.4	91.0	48	66.2	2	6	248	0.00	29.966 
15:20	88.0	88.0	90.3	48	65.8	2	5	248	0.00	29.966 
15:25	87.6	87.6	90.0	49	66.0	3	4	248	0.00	29.966 
15:30	87.2	87.2	89.7	50	66.3	2	5	248	0.00	29.962 
15:35	87.0	87.0	89.4	50	66.1	2	7	248	0.00	29.962 
15:40	87.0	87.0	89.4	50	66.1	2	5	248	0.00	29.962 
15:45	86.5	86.5	88.6	50	65.6	2	5	248	0.00	29.968 
15:50	86.3	86.3	88.6	51	66.0	1	4	248	0.00	29.968 
15:55	86.1	86.1	88.3	51	65.8	1	6	248	0.00	29.968 
16:00	86.1	86.1	88.6	52	66.4	1	3	248	0.00	29.967 
16:05	85.9	85.9	88.3	52	66.2	1	3	270	0.00	29.967 
16:10	85.7	85.7	88.0	52	66.0	1	3	270	0.00	29.967 
16:15	85.5	85.5	88.0	53	66.4	1	4	270	0.00	29.969 
16:20	85.5	85.5	87.7	52	65.8	2	4	248	0.00	29.969 
16:25	85.5	85.5	88.0	53	66.4	2	4	248	0.00	29.969 
16:30	85.5	85.5	88.0	53	66.4	1	4	248	0.00	29.964 
16:35	85.3	85.3	87.7	53	66.2	0	2	248	0.00	29.964 
16:40	85.3	85.3	87.7	53	66.2	1	3	248	0.00	29.964 
16:45	85.1	85.1	87.4	53	66.0	1	4	248	0.00	29.964 
16:50	84.9	84.9	87.3	54	66.4	1	3	248	0.00	29.964 
16:55	84.7	84.7	87.6	56	67.2	1	3	248	0.00	29.964 
17:00	84.3	84.3	87.2	57	67.4	1	5	248	0.00	29.956 
17:05	84.0	84.0	87.0	58	67.6	1	4	248	0.00	29.956 
17:10	83.6	83.6	86.9	60	68.2	1	3	248	0.00	29.956 
17:15	82.0	82.0	85.0	63	68.1	4	9	270	0.00	29.972 
17:20	79.6	79.6	82.1	68	68.1	4	7	270	0.00	29.972 
17:25	77.2	77.2	79.0	73	67.9	5	10	270	0.00	29.972 
17:30	75.4	75.4	76.3	78	68.0	4	7	248	0.00	29.962 
17:35	74.2	74.2	74.2	81	68.0	3	5	248	0.00	29.962 
17:40	73.5	73.5	73.5	83	68.0	3	6	270	0.00	29.962 
17:45	73.0	73.0	73.0	84	67.9	2	6	248	0.00	29.962 
17:50	72.7	72.7	72.7	83	67.2	2	5	270	0.00	29.962 
17:55	72.5	72.5	72.5	84	67.4	2	4	270	0.00	29.962 
18:00	72.5	72.5	72.5	84	67.4	1	3	270	0.00	29.962 
18:05	72.7	72.7	72.7	84	67.6	1	3	248	0.00	29.962 
18:10	73.2	73.2	73.2	84	68.1	2	4	248	0.00	29.962 
18:15	73.2	73.2	73.2	84	68.1	2	5	270	0.00	29.962 
18:20	73.2	73.2	73.2	84	68.1	3	6	292	0.00	29.962 
18:25	73.0	73.0	73.0	85	68.2	2	5	270	0.00	29.962 
18:30	72.8	72.8	72.8	85	68.0	1	3	270	0.00	29.963 
18:35	73.0	73.0	73.0	86	68.6	2	5	270	0.00	29.963 
18:40	73.0	73.0	73.0	86	68.6	2	4	248	0.00	29.963 
18:45	72.8	72.8	72.8	86	68.4	1	3	248	0.00	29.962 
18:50	73.2	73.2	73.2	85	68.4	2	4	248	0.00	29.962 
18:55	73.5	73.5	73.5	83	68.0	3	7	248	0.00	29.962 
19:00	73.7	73.7	73.7	81	67.5	3	5	248	0.00	29.963 
19:05	74.0	74.0	74.0	80	67.4	2	4	248	0.00	29.963 
19:10	74.4	74.4	74.4	78	67.1	2	5	248	0.00	29.963 
19:15	74.7	74.7	74.7	77	67.0	2	5	225	0.00	29.945 
19:20	75.1	75.1	76.1	77	67.4	1	5	225	0.00	29.945 
19:25	75.4	75.4	76.5	76	67.3	1	3	225	0.00	29.945 
19:30	75.8	75.8	77.1	75	67.3	1	4	248	0.00	29.943 
19:35	76.0	76.0	77.4	75	67.5	1	4	248	0.00	29.943 
19:40	76.0	76.0	77.4	75	67.5	2	4	248	0.00	29.943 
19:45	76.0	76.0	77.4	74	67.1	2	5	248	0.00	29.945 
19:50	76.0	76.0	77.4	74	67.1	1	3	248	0.00	29.945 
19:55	76.0	76.0	77.4	74	67.1	2	4	248	0.00	29.945 
20:00	76.0	76.0	77.4	74	67.1	2	5	248	0.00	29.944 
20:05	76.0	76.0	77.4	74	67.1	1	3	248	0.00	29.944 
20:10	76.0	76.0	77.4	74	67.1	1	5	248	0.00	29.944 
20:15	76.0	76.0	77.5	73	66.7	1	5	248	0.00	29.933 
20:20	76.0	76.0	77.5	73	66.7	1	4	248	0.00	29.933 
20:25	75.8	75.8	77.3	73	66.5	1	4	248	0.00	29.933 
20:30	75.6	75.6	77.0	73	66.3	0	1	248	0.00	29.926 
20:35	75.4	75.4	76.8	73	66.1	1	3	248	0.00	29.926 
20:40	75.3	75.3	76.8	72	65.6	1	3	248	0.00	29.926 
20:45	75.1	75.1	76.6	72	65.4	0	2	248	0.00	29.928 
20:50	74.9	74.9	74.9	71	64.8	0	3	248	0.00	29.928 
20:55	74.7	74.7	74.7	72	65.1	0	1	248	0.00	29.928 
21:00	74.6	74.6	74.6	71	64.6	1	4	248	0.00	29.921 
21:05	74.4	74.4	74.4	71	64.4	0	2	248	0.00	29.921 
21:10	74.2	74.2	74.2	71	64.2	1	3	248	0.00	29.921 
21:15	74.2	74.2	74.2	72	64.6	1	3	248	0.00	29.927 
21:20	74.0	74.0	74.0	73	64.8	1	4	248	0.00	29.927 
21:25	73.9	73.9	73.9	73	64.7	0	1	248	0.00	29.927 
21:30	73.5	73.5	73.5	75	65.1	1	3	248	0.00	29.928 
21:35	73.3	73.3	73.3	77	65.6	1	6	248	0.00	29.928 
21:40	73.2	73.2	73.2	77	65.5	0	1	292	0.00	29.928 
21:45	73.0	73.0	73.0	78	65.7	1	4	270	0.00	29.942 
21:50	72.7	72.7	72.7	79	65.8	1	3	248	0.00	29.942 
21:55	72.5	72.5	72.5	79	65.6	1	5	225	0.00	29.942 
22:00	72.3	72.3	72.3	80	65.8	1	5	248	0.00	29.938 
22:05	72.3	72.3	72.3	80	65.8	1	5	248	0.00	29.938 
22:10	72.3	72.3	72.3	80	65.8	1	4	248	0.00	29.938 
22:15	72.1	72.1	72.1	80	65.6	0	3	248	0.00	29.931 
22:20	72.1	72.1	72.1	80	65.6	1	5	248	0.00	29.931 
22:25	72.1	72.1	72.1	80	65.6	1	4	248	0.00	29.931 
22:30	72.1	72.1	72.1	80	65.6	2	5	248	0.00	29.926 
22:35	72.3	72.3	72.3	80	65.8	1	3	248	0.00	29.926 
22:40	72.3	72.3	72.3	80	65.8	2	4	248	0.00	29.926 
22:45	72.3	72.3	72.3	80	65.8	1	4	248	0.00	29.915 
22:50	72.3	72.3	72.3	81	66.1	2	4	248	0.00	29.915 
22:55	72.3	72.3	72.3	81	66.1	1	5	248	0.00	29.915 
23:00	72.3	72.3	72.3	81	66.1	1	4	270	0.00	29.924 
23:05	72.3	72.3	72.3	81	66.1	1	3	270	0.00	29.924 
23:10	72.5	72.5	72.5	81	66.3	1	5	248	0.00	29.924 
23:15	72.5	72.5	72.5	80	66.0	1	5	248	0.00	29.929 
23:20	72.5	72.5	72.5	80	66.0	1	3	248	0.00	29.929 
23:25	72.5	72.5	72.5	81	66.3	1	5	248	0.00	29.929 
23:30	72.5	72.5	72.5	81	66.3	0	4	248	0.00	29.923 
23:35	72.3	72.3	72.3	81	66.1	1	3	248	0.00	29.923 
23:40	72.3	72.3	72.3	81	66.1	1	3	248	0.00	29.923 
23:45	72.3	72.3	72.3	81	66.1	1	2	248	0.00	29.928 
23:50	72.1	72.1	72.1	81	65.9	0	3	248	0.00	29.928 
23:55	72.1	72.1	72.1	81	65.9	0	2	248	0.00	29.928 

CoCoRaHS
IN-AL-39
A2 Web Hosting
Creative Commons License
GoDaddy
search engine by freefind advanced

loaded 2018-11-16 11:01:56 • last modified 2010-11-18 10:43:29
Privacy PolicyDisclaimer
• wx.awcolley.com is powered by PmWiki v.2002016 •
• all content (unless otherwise noted) © 2018 A W Colley